Main page
METAR-TAF:

METAR-TAF

Airports :

Newcastle upon Tyne, England

Newcastle Airport

latitude: 55-02N, longitude: 001-42W, elevation: 81 m

Current weather observation

The report was made 23 minutes ago, at 23:50 UTC
Wind 2 kt from the South
Temperature 6°C
Humidity 100%
Pressure 1016 hPa
Visibility 10 km or more
no clouds below 1500 m and no cumulonimbus

METAR: EGNT 192350Z 19002KT CAVOK 06/06 Q1016

Time: 01:13 (00:13 UTC)

Forecast

The report was made 1 hour and 17 minutes ago, at 22:56 UTC
Forecast valid from 20 at 00 UTC to 20 at 24 UTC
Wind 5 kt from the South/Southwest
Visibility 10 km or more
Few clouds at a height of 3500 ft
Probability 40% :
Temporary
from 20 at 20 UTC to 20 at 24 UTC
Visibility: 7000 m
rain

TAF: EGNT 192256Z 2000/2024 20005KT 9999 FEW035 PROB40 TEMPO 2020/2024 7000 RA

Weather observations and forecasts of more than 4000 airports (METAR and TAF reports).

The available stations are represented by yellow and red dots on the map.

Hover mouse over dot to see the name of the station.

Then click to see weather observations and forecasts.

To change the map : click on the green buttons with a black cross to zoom in, on the green button with a dash to zoom out, or on the green arrows for adjacent maps.


METAR-TAF: